createdAt,value
2022-08-26T00:02:01.686Z,84.50
2022-08-26T00:04:32.701Z,84.80
2022-08-26T00:07:01.523Z,85.10
2022-08-26T00:09:31.370Z,85.10
2022-08-26T00:12:00.174Z,84.80
2022-08-26T00:14:30.979Z,85.50
2022-08-26T00:17:00.478Z,86.50
2022-08-26T00:19:29.389Z,87.60
2022-08-26T00:21:59.780Z,88.40
2022-08-26T00:24:28.566Z,88.30
2022-08-26T00:26:57.507Z,88.00
2022-08-26T00:29:27.225Z,89.00
2022-08-26T00:31:56.100Z,87.50
2022-08-26T00:34:24.962Z,88.30
2022-08-26T00:36:54.081Z,88.20
2022-08-26T00:39:24.656Z,88.90
2022-08-26T00:41:53.640Z,87.80
2022-08-26T00:44:23.456Z,88.70
2022-08-26T00:46:57.107Z,87.90
2022-08-26T00:49:32.476Z,87.00
2022-08-26T00:52:04.591Z,86.70
2022-08-26T00:54:45.429Z,87.30
2022-08-26T00:57:18.131Z,87.90
2022-08-26T00:59:48.460Z,88.40
2022-08-26T01:02:19.922Z,88.00
2022-08-26T01:04:56.026Z,88.10
2022-08-26T01:07:27.560Z,88.80
2022-08-26T01:10:02.013Z,89.70
2022-08-26T01:12:40.189Z,90.10
2022-08-26T01:15:11.777Z,90.20
2022-08-26T01:17:41.276Z,90.40
2022-08-26T01:20:23.155Z,90.60
2022-08-26T01:22:58.897Z,90.80
2022-08-26T01:25:33.883Z,91.20
2022-08-26T01:28:06.908Z,91.60
2022-08-26T01:30:36.899Z,91.60
2022-08-26T01:33:10.411Z,91.60
2022-08-26T01:35:40.588Z,91.60
2022-08-26T01:38:11.323Z,91.50
2022-08-26T01:40:44.149Z,91.60
2022-08-26T01:43:17.467Z,91.80
2022-08-26T01:45:48.083Z,91.80
2022-08-26T01:48:20.725Z,91.80
2022-08-26T01:50:50.594Z,91.80
2022-08-26T01:53:21.586Z,91.50
2022-08-26T01:55:54.405Z,91.40
2022-08-26T01:58:25.841Z,91.30
2022-08-26T02:00:55.835Z,91.30
2022-08-26T02:03:25.510Z,91.60
2022-08-26T02:05:56.817Z,91.80
2022-08-26T02:08:33.373Z,91.10
2022-08-26T02:11:02.209Z,91.70
2022-08-26T02:13:34.529Z,91.50
2022-08-26T02:16:04.488Z,91.70
2022-08-26T02:18:36.487Z,91.80
2022-08-26T02:21:06.884Z,91.50
2022-08-26T02:23:37.183Z,91.80
2022-08-26T02:26:11.404Z,91.60
2022-08-26T02:28:46.742Z,91.40
2022-08-26T02:31:15.624Z,91.80
2022-08-26T02:33:44.691Z,91.70
2022-08-26T02:36:13.960Z,92.70
2022-08-26T02:38:46.198Z,91.80
2022-08-26T02:41:15.232Z,91.80
2022-08-26T02:43:47.364Z,91.80
2022-08-26T02:46:27.891Z,92.60
2022-08-26T02:48:59.335Z,93.00
2022-08-26T02:51:28.095Z,93.80
2022-08-26T02:53:58.343Z,94.10
2022-08-26T02:56:27.997Z,94.40
2022-08-26T02:58:57.031Z,94.50
2022-08-26T03:01:30.129Z,94.70
2022-08-26T03:03:59.913Z,94.30
2022-08-26T03:06:29.361Z,93.70
2022-08-26T03:08:59.702Z,93.40
2022-08-26T03:11:32.871Z,93.60
2022-08-26T03:14:03.413Z,93.50
2022-08-26T03:16:34.145Z,93.90
2022-08-26T03:19:04.190Z,94.30
2022-08-26T03:21:33.177Z,94.40
2022-08-26T03:24:03.506Z,94.20
2022-08-26T03:26:32.838Z,93.90
2022-08-26T03:29:19.246Z,94.10
2022-08-26T03:31:48.269Z,94.00
2022-08-26T03:34:18.687Z,93.80
2022-08-26T03:36:47.759Z,94.10
2022-08-26T03:39:18.765Z,94.40
2022-08-26T03:41:47.669Z,94.60
2022-08-26T03:44:16.512Z,94.50
2022-08-26T03:46:46.553Z,94.50
2022-08-26T03:49:15.421Z,94.50
2022-08-26T03:51:44.285Z,94.70
2022-08-26T03:54:13.788Z,94.80
2022-08-26T03:56:44.096Z,94.50
2022-08-26T03:59:15.712Z,94.50
2022-08-26T04:01:44.688Z,94.60
2022-08-26T04:04:15.554Z,94.90
2022-08-26T04:06:45.131Z,95.20
2022-08-26T04:09:15.918Z,95.50
2022-08-26T04:11:50.738Z,95.10
2022-08-26T04:14:22.518Z,94.80
2022-08-26T04:16:52.289Z,95.20
2022-08-26T04:19:22.036Z,95.40
2022-08-26T04:21:53.367Z,95.50
2022-08-26T04:24:23.812Z,95.60
2022-08-26T04:26:55.036Z,95.80
2022-08-26T04:29:25.774Z,95.10
2022-08-26T04:31:56.297Z,95.20
2022-08-26T04:34:27.224Z,95.30
2022-08-26T04:36:58.108Z,95.40
2022-08-26T04:39:27.965Z,95.70
2022-08-26T04:41:58.466Z,95.80
2022-08-26T04:44:29.998Z,95.90
2022-08-26T04:46:59.806Z,95.80
2022-08-26T04:49:28.821Z,95.90
2022-08-26T04:52:05.369Z,95.90
2022-08-26T04:54:34.286Z,96.00
2022-08-26T04:57:04.562Z,95.60
2022-08-26T04:59:38.480Z,96.10
2022-08-26T05:02:08.918Z,96.40
2022-08-26T05:04:38.134Z,96.10
2022-08-26T05:07:08.217Z,96.00
2022-08-26T05:09:38.707Z,95.90
2022-08-26T05:12:09.854Z,95.70
2022-08-26T05:14:38.704Z,95.50
2022-08-26T05:17:07.484Z,95.50
2022-08-26T05:19:37.347Z,94.90
2022-08-26T05:22:13.235Z,94.60
2022-08-26T05:24:43.376Z,94.50
2022-08-26T05:27:14.358Z,94.60
2022-08-26T05:29:43.397Z,94.60
2022-08-26T05:32:13.420Z,94.50
2022-08-26T05:34:43.115Z,94.40
2022-08-26T05:37:13.648Z,94.70
2022-08-26T05:39:48.780Z,94.50
2022-08-26T05:42:21.674Z,94.10
2022-08-26T05:44:55.935Z,94.60
2022-08-26T05:47:25.411Z,95.40
2022-08-26T05:49:55.602Z,95.30
2022-08-26T05:52:26.041Z,95.10
2022-08-26T05:54:55.286Z,94.70
2022-08-26T05:57:25.597Z,94.10
2022-08-26T05:59:54.436Z,94.00
2022-08-26T06:02:23.439Z,93.80
2022-08-26T06:04:52.339Z,93.50
2022-08-26T06:07:42.437Z,93.60
2022-08-26T06:10:31.448Z,93.50
2022-08-26T06:13:11.843Z,92.90
2022-08-26T06:15:43.475Z,93.20
2022-08-26T06:18:14.723Z,92.80
2022-08-26T06:20:54.565Z,92.80
2022-08-26T06:23:44.486Z,93.00
2022-08-26T06:26:14.096Z,93.00
2022-08-26T06:28:45.583Z,92.90
2022-08-26T06:31:15.647Z,92.30
2022-08-26T06:33:45.215Z,92.30
2022-08-26T06:36:19.588Z,92.80
2022-08-26T06:38:49.365Z,92.00
2022-08-26T06:41:21.170Z,91.90
2022-08-26T06:43:52.273Z,91.90
2022-08-26T06:46:23.093Z,91.50
2022-08-26T06:48:55.794Z,91.70
2022-08-26T06:51:27.470Z,90.80
2022-08-26T06:53:59.843Z,91.50
2022-08-26T06:56:30.447Z,91.80
2022-08-26T06:59:04.639Z,91.70
2022-08-26T07:01:43.076Z,91.80
2022-08-26T07:04:15.737Z,91.50
2022-08-26T07:06:53.226Z,91.20
2022-08-26T07:09:24.075Z,91.00
2022-08-26T07:11:53.865Z,90.40
2022-08-26T07:14:26.266Z,90.50
2022-08-26T07:16:55.617Z,89.20
2022-08-26T07:19:30.339Z,86.70
2022-08-26T07:22:02.276Z,87.90
2022-08-26T07:24:32.985Z,86.60
2022-08-26T07:27:03.083Z,88.50
2022-08-26T07:29:36.922Z,87.80
2022-08-26T07:32:06.675Z,85.60
2022-08-26T07:34:35.765Z,86.80
2022-08-26T07:37:06.029Z,86.60
2022-08-26T07:39:38.065Z,86.20
2022-08-26T07:42:10.834Z,86.00
2022-08-26T07:44:42.275Z,86.80
2022-08-26T07:47:25.096Z,85.30
2022-08-26T07:49:56.097Z,85.50
2022-08-26T07:52:26.949Z,86.40
2022-08-26T07:54:57.195Z,83.60
2022-08-26T07:57:26.404Z,82.30
2022-08-26T07:59:57.222Z,82.70
2022-08-26T08:02:28.325Z,83.40
2022-08-26T08:04:58.549Z,83.30
2022-08-26T08:07:38.758Z,81.90
2022-08-26T08:10:15.885Z,82.90
2022-08-26T08:12:45.416Z,80.80
2022-08-26T08:15:16.796Z,81.50
2022-08-26T08:17:46.004Z,82.70
2022-08-26T08:20:16.057Z,81.50
2022-08-26T08:22:45.325Z,80.90
2022-08-26T08:25:16.404Z,81.10
2022-08-26T08:27:46.547Z,79.10
2022-08-26T08:30:21.018Z,80.00
2022-08-26T08:32:52.704Z,80.50
2022-08-26T08:35:22.769Z,76.60
2022-08-26T08:37:54.575Z,76.80
2022-08-26T08:42:59.673Z,79.00
2022-08-26T08:45:36.647Z,78.50
2022-08-26T08:48:08.740Z,79.30
2022-08-26T08:50:45.884Z,75.60
2022-08-26T08:53:20.618Z,75.30
2022-08-26T08:55:59.947Z,75.70
2022-08-26T08:58:57.467Z,76.90
2022-08-26T09:01:46.274Z,76.30
2022-08-26T09:04:42.025Z,77.00
2022-08-26T09:07:18.205Z,73.00
2022-08-26T09:09:50.415Z,76.50
2022-08-26T09:12:29.861Z,73.20
2022-08-26T09:15:05.133Z,74.50
2022-08-26T09:17:51.113Z,74.60
2022-08-26T09:20:33.074Z,71.30
2022-08-26T09:23:01.855Z,72.90
2022-08-26T09:25:31.143Z,74.30
2022-08-26T09:28:00.743Z,73.90
2022-08-26T09:30:36.596Z,70.40
2022-08-26T09:33:11.140Z,70.60
2022-08-26T09:35:43.153Z,73.20
2022-08-26T09:38:24.496Z,68.50
2022-08-26T09:40:59.665Z,70.70
2022-08-26T09:43:28.768Z,70.70
2022-08-26T09:46:15.637Z,68.40
2022-08-26T09:48:44.698Z,70.10
2022-08-26T09:51:29.944Z,69.10
2022-08-26T09:54:02.036Z,70.50
2022-08-26T09:56:33.976Z,70.30
2022-08-26T09:59:05.018Z,70.20
2022-08-26T10:01:42.103Z,69.60
2022-08-26T10:04:14.859Z,69.50
2022-08-26T10:06:46.385Z,68.80
2022-08-26T10:09:19.716Z,68.20
2022-08-26T10:11:53.665Z,68.10
2022-08-26T10:14:27.852Z,67.30
2022-08-26T10:17:03.712Z,65.90
2022-08-26T10:19:56.094Z,70.20
2022-08-26T10:22:41.169Z,66.40
2022-08-26T10:25:17.421Z,67.90
2022-08-26T10:27:53.556Z,65.10
2022-08-26T10:30:24.669Z,67.70
2022-08-26T10:32:59.247Z,65.90
2022-08-26T10:35:29.227Z,67.70
2022-08-26T10:38:04.106Z,68.60
2022-08-26T10:40:46.750Z,64.60
2022-08-26T10:43:22.857Z,67.90
2022-08-26T10:45:58.553Z,66.60
2022-08-26T10:48:35.840Z,66.20
2022-08-26T10:51:06.556Z,67.40
2022-08-26T10:53:47.365Z,66.10
2022-08-26T10:56:31.118Z,64.90
2022-08-26T10:59:12.359Z,64.30
2022-08-26T11:01:51.145Z,63.80
2022-08-26T11:04:48.532Z,63.50
2022-08-26T11:07:39.750Z,64.60
2022-08-26T11:10:28.347Z,61.90
2022-08-26T11:13:00.084Z,63.80
2022-08-26T11:16:10.972Z,62.40
2022-08-26T11:18:46.327Z,64.20
2022-08-26T11:21:52.248Z,65.20
2022-08-26T11:25:02.122Z,63.90
2022-08-26T11:28:07.236Z,64.40
2022-08-26T11:30:58.291Z,65.00
2022-08-26T11:33:59.141Z,60.80
2022-08-26T11:37:00.688Z,64.50
2022-08-26T11:39:38.405Z,63.70
2022-08-26T11:42:22.968Z,59.50
2022-08-26T11:44:52.519Z,62.70
2022-08-26T11:47:29.432Z,61.10
2022-08-26T11:50:17.130Z,56.60
2022-08-26T11:53:07.755Z,59.00
2022-08-26T11:55:43.516Z,57.00
2022-08-26T11:58:14.467Z,57.40
2022-08-26T12:00:53.333Z,55.40
2022-08-26T12:03:26.666Z,54.80
2022-08-26T12:05:57.473Z,54.90
2022-08-26T12:08:31.360Z,57.70
2022-08-26T12:11:09.769Z,55.00
2022-08-26T12:13:39.379Z,57.30
2022-08-26T12:16:08.887Z,55.80
2022-08-26T12:18:40.488Z,55.40
2022-08-26T12:21:17.518Z,54.60
2022-08-26T12:23:50.457Z,54.40
2022-08-26T12:26:25.620Z,54.40
2022-08-26T12:28:58.255Z,52.10
2022-08-26T12:31:32.730Z,53.90
2022-08-26T12:34:04.273Z,50.90
2022-08-26T12:36:36.572Z,49.80
2022-08-26T12:39:12.726Z,52.90
2022-08-26T12:41:53.084Z,51.00
2022-08-26T12:44:36.791Z,48.30
2022-08-26T12:47:10.115Z,49.90
2022-08-26T12:49:40.852Z,47.10
2022-08-26T12:52:30.157Z,48.40
2022-08-26T12:55:02.899Z,51.70
2022-08-26T12:57:35.336Z,49.30
2022-08-26T13:00:30.185Z,49.90
2022-08-26T13:02:59.639Z,47.20
2022-08-26T13:05:33.198Z,48.10
2022-08-26T13:08:16.961Z,49.30
2022-08-26T13:10:49.110Z,45.80
2022-08-26T13:13:17.939Z,49.20
2022-08-26T13:15:46.728Z,47.70
2022-08-26T13:18:15.609Z,45.70
2022-08-26T13:20:45.330Z,48.00
2022-08-26T13:23:14.903Z,46.00
2022-08-26T13:25:44.033Z,47.70
2022-08-26T13:28:14.454Z,46.20
2022-08-26T13:30:47.183Z,46.90
2022-08-26T13:33:18.405Z,48.30
2022-08-26T13:35:47.248Z,46.50
2022-08-26T13:38:22.355Z,46.10
2022-08-26T13:41:02.901Z,45.80
2022-08-26T13:43:33.835Z,45.20
2022-08-26T13:46:03.630Z,46.70
2022-08-26T13:48:34.131Z,47.20
2022-08-26T13:51:03.663Z,48.10
2022-08-26T13:53:37.819Z,47.20
2022-08-26T13:56:11.086Z,45.10
2022-08-26T13:58:41.815Z,45.60
2022-08-26T14:01:11.140Z,42.70
2022-08-26T14:03:40.039Z,42.70
2022-08-26T14:06:09.087Z,42.70
2022-08-26T14:08:38.023Z,41.90
2022-08-26T14:11:08.013Z,41.70
2022-08-26T14:13:37.169Z,41.70
2022-08-26T14:16:13.413Z,42.80
2022-08-26T14:18:48.573Z,43.10
2022-08-26T14:21:19.679Z,43.60
2022-08-26T14:23:48.641Z,44.20
2022-08-26T14:26:28.233Z,43.00
2022-08-26T14:28:59.135Z,41.80
2022-08-26T14:31:31.855Z,43.50
2022-08-26T14:34:03.926Z,43.50
2022-08-26T14:36:33.300Z,41.70
2022-08-26T14:39:05.521Z,44.10
2022-08-26T14:41:37.288Z,44.70
2022-08-26T14:44:09.133Z,45.10
2022-08-26T14:46:44.630Z,43.80
2022-08-26T14:49:14.073Z,43.90
2022-08-26T14:51:43.179Z,44.90
2022-08-26T14:54:14.906Z,44.20
2022-08-26T14:56:50.639Z,44.20
2022-08-26T14:59:27.009Z,43.60
2022-08-26T15:01:58.108Z,44.00
2022-08-26T15:04:27.179Z,43.40
2022-08-26T15:06:57.570Z,44.50
2022-08-26T15:09:27.081Z,43.80
2022-08-26T15:11:55.930Z,43.80
2022-08-26T15:14:27.579Z,43.40
2022-08-26T15:16:59.937Z,43.70
2022-08-26T15:19:31.541Z,42.60
2022-08-26T15:22:00.455Z,43.00
2022-08-26T15:24:30.150Z,42.50
2022-08-26T15:26:59.259Z,43.20
2022-08-26T15:29:28.248Z,42.40
2022-08-26T15:31:58.397Z,42.30
2022-08-26T15:34:27.199Z,42.50
2022-08-26T15:36:56.199Z,42.70
2022-08-26T15:39:25.069Z,42.50
2022-08-26T15:41:56.217Z,41.90
2022-08-26T15:44:26.741Z,41.40
2022-08-26T15:46:58.820Z,40.10
2022-08-26T15:49:28.373Z,41.60
2022-08-26T15:51:57.401Z,40.40
2022-08-26T15:54:26.439Z,42.20
2022-08-26T15:56:55.788Z,43.50
2022-08-26T15:59:24.837Z,44.10
2022-08-26T16:01:53.907Z,46.60
2022-08-26T16:04:24.343Z,48.30
2022-08-26T16:06:53.969Z,49.70
2022-08-26T16:09:27.050Z,50.50
2022-08-26T16:11:56.689Z,51.80
2022-08-26T16:14:26.375Z,53.00
2022-08-26T16:16:56.547Z,53.60
2022-08-26T16:19:26.796Z,54.30
2022-08-26T16:21:55.571Z,55.20
2022-08-26T16:24:29.722Z,55.40
2022-08-26T16:26:59.382Z,56.40
2022-08-26T16:29:28.412Z,56.80
2022-08-26T16:31:57.747Z,57.20
2022-08-26T16:34:28.211Z,57.90
2022-08-26T16:36:56.963Z,58.40
2022-08-26T16:39:25.733Z,58.60
2022-08-26T16:41:54.646Z,58.30
2022-08-26T16:44:23.551Z,57.30
2022-08-26T16:46:58.813Z,57.20
2022-08-26T16:49:29.462Z,57.70
2022-08-26T16:51:58.272Z,57.20
2022-08-26T16:54:27.033Z,56.40
2022-08-26T16:56:55.814Z,55.90
2022-08-26T16:59:25.096Z,55.80
2022-08-26T17:01:53.965Z,56.10
2022-08-26T17:04:22.910Z,57.10
2022-08-26T17:06:53.526Z,57.00
2022-08-26T17:09:23.099Z,57.10
2022-08-26T17:11:52.106Z,58.60
2022-08-26T17:14:21.059Z,59.60
2022-08-26T17:16:51.505Z,60.10
2022-08-26T17:19:21.238Z,60.30
2022-08-26T17:21:50.479Z,60.40
2022-08-26T17:24:20.842Z,60.00
2022-08-26T17:26:50.005Z,60.30
2022-08-26T17:29:24.630Z,59.00
2022-08-26T17:31:53.620Z,59.40
2022-08-26T17:34:23.108Z,59.40
2022-08-26T17:36:52.460Z,57.70
2022-08-26T17:39:32.547Z,56.80
2022-08-26T17:42:01.868Z,56.50
2022-08-26T17:44:30.667Z,56.60
2022-08-26T17:46:59.489Z,56.00
2022-08-26T17:49:28.460Z,56.90
2022-08-26T17:51:59.738Z,56.70
2022-08-26T17:54:30.269Z,56.90
2022-08-26T17:57:00.709Z,58.10
2022-08-26T17:59:30.539Z,57.60
2022-08-26T18:02:00.026Z,59.00
2022-08-26T18:04:29.040Z,59.70
2022-08-26T18:06:57.885Z,60.00
2022-08-26T18:09:26.705Z,59.80
2022-08-26T18:11:57.269Z,60.30
2022-08-26T18:14:26.431Z,60.90
2022-08-26T18:16:55.740Z,61.60
2022-08-26T18:19:24.527Z,61.50
2022-08-26T18:21:53.387Z,61.20
2022-08-26T18:24:22.267Z,61.90
2022-08-26T18:26:51.247Z,61.90
2022-08-26T18:29:21.986Z,61.90
2022-08-26T18:31:50.797Z,62.30
2022-08-26T18:34:19.918Z,63.10
2022-08-26T18:36:49.177Z,63.60
2022-08-26T18:39:19.470Z,64.20
2022-08-26T18:41:53.665Z,64.50
2022-08-26T18:44:24.521Z,64.90
2022-08-26T18:46:53.749Z,64.90
2022-08-26T18:49:23.131Z,65.00
2022-08-26T18:51:52.599Z,65.20
2022-08-26T18:54:22.013Z,65.30
2022-08-26T18:56:51.063Z,65.40
2022-08-26T18:59:20.021Z,65.80
2022-08-26T19:02:00.492Z,65.90
2022-08-26T19:04:29.529Z,66.10
2022-08-26T19:06:58.463Z,65.90
2022-08-26T19:09:27.647Z,66.50
2022-08-26T19:14:31.308Z,66.40
2022-08-26T19:17:01.786Z,66.60
2022-08-26T19:19:31.996Z,66.50
2022-08-26T19:22:00.909Z,67.20
2022-08-26T19:24:29.927Z,67.00
2022-08-26T19:27:01.287Z,67.60
2022-08-26T19:29:32.869Z,67.60
2022-08-26T19:32:03.719Z,68.30
2022-08-26T19:34:32.999Z,67.90
2022-08-26T19:37:03.456Z,68.20
2022-08-26T19:39:32.354Z,68.20
2022-08-26T19:42:01.702Z,68.40
2022-08-26T19:44:47.737Z,68.60
2022-08-26T19:47:18.028Z,69.00
2022-08-26T19:49:47.060Z,69.00
2022-08-26T19:52:15.949Z,69.70
2022-08-26T19:54:44.895Z,69.30
2022-08-26T19:57:13.816Z,69.20
2022-08-26T19:59:42.798Z,69.20
2022-08-26T20:02:11.783Z,69.30
2022-08-26T20:04:43.128Z,68.40
2022-08-26T20:07:18.050Z,68.80
2022-08-26T20:09:48.977Z,68.90
2022-08-26T20:12:18.907Z,68.70
2022-08-26T20:14:48.265Z,69.10
2022-08-26T20:17:17.456Z,69.30
2022-08-26T20:20:05.035Z,68.90
2022-08-26T20:22:34.098Z,68.90
2022-08-26T20:25:03.207Z,68.70
2022-08-26T20:27:37.846Z,69.30
2022-08-26T20:30:10.323Z,68.80
2022-08-26T20:32:40.117Z,68.80
2022-08-26T20:35:13.418Z,68.80
2022-08-26T20:37:42.570Z,69.30
2022-08-26T20:40:13.698Z,69.20
2022-08-26T20:42:42.700Z,68.90
2022-08-26T20:45:12.552Z,69.00
2022-08-26T20:47:41.906Z,69.30
2022-08-26T20:50:12.442Z,68.90
2022-08-26T20:52:41.220Z,69.40
2022-08-26T20:55:10.837Z,69.70
2022-08-26T20:57:43.519Z,69.30
2022-08-26T21:00:16.312Z,69.60
2022-08-26T21:02:46.969Z,69.60
2022-08-26T21:05:17.386Z,69.50
2022-08-26T21:07:46.642Z,70.10
2022-08-26T21:10:16.082Z,70.60
2022-08-26T21:12:44.952Z,69.70
2022-08-26T21:15:14.524Z,69.80
2022-08-26T21:17:43.478Z,69.80
2022-08-26T21:20:12.408Z,70.20
2022-08-26T21:22:43.085Z,70.90
2022-08-26T21:25:12.425Z,71.30
2022-08-26T21:27:41.236Z,71.60
2022-08-26T21:30:11.782Z,71.70
2022-08-26T21:32:40.586Z,72.00
2022-08-26T21:35:10.672Z,72.20
2022-08-26T21:37:39.540Z,72.50
2022-08-26T21:40:11.220Z,72.60
2022-08-26T21:42:40.390Z,72.60
2022-08-26T21:45:10.186Z,72.70
2022-08-26T21:47:39.854Z,73.10
2022-08-26T21:50:09.461Z,73.10
2022-08-26T21:52:39.151Z,73.30
2022-08-26T21:55:11.583Z,73.60
2022-08-26T21:57:41.010Z,73.30
2022-08-26T22:00:13.321Z,73.60
2022-08-26T22:02:42.163Z,73.70
2022-08-26T22:05:11.635Z,74.00
2022-08-26T22:07:40.472Z,73.20
2022-08-26T22:10:11.117Z,73.60
2022-08-26T22:12:40.139Z,73.80
2022-08-26T22:15:10.421Z,74.20
2022-08-26T22:17:39.244Z,74.20
2022-08-26T22:20:16.353Z,74.50
2022-08-26T22:22:46.045Z,74.30
2022-08-26T22:25:16.310Z,74.10
2022-08-26T22:27:45.232Z,74.80
2022-08-26T22:30:14.850Z,74.30
2022-08-26T22:32:44.149Z,74.20
2022-08-26T22:35:28.078Z,74.50
2022-08-26T22:37:58.633Z,74.40
2022-08-26T22:40:29.095Z,74.50
2022-08-26T22:43:00.354Z,74.60
2022-08-26T22:45:31.568Z,74.90
2022-08-26T22:48:01.827Z,75.50
2022-08-26T22:50:30.615Z,76.30
2022-08-26T22:52:59.761Z,76.40
2022-08-26T22:55:30.197Z,76.70
2022-08-26T22:57:59.098Z,76.20
2022-08-26T23:00:32.332Z,76.60
2022-08-26T23:03:02.108Z,75.90
2022-08-26T23:05:31.122Z,76.20
2022-08-26T23:08:00.274Z,77.00
2022-08-26T23:10:30.583Z,77.10
2022-08-26T23:12:59.413Z,77.10
2022-08-26T23:15:28.425Z,77.00
2022-08-26T23:17:58.702Z,76.90
2022-08-26T23:20:39.492Z,77.20
2022-08-26T23:23:08.784Z,77.60
2022-08-26T23:25:39.043Z,77.70
2022-08-26T23:28:10.405Z,78.30
2022-08-26T23:30:39.424Z,79.20
2022-08-26T23:33:08.394Z,79.80
2022-08-26T23:35:36.267Z,80.40
2022-08-26T23:38:07.603Z,80.90
2022-08-26T23:40:40.693Z,80.90
2022-08-26T23:43:11.544Z,80.20
2022-08-26T23:45:40.406Z,81.50
2022-08-26T23:48:09.482Z,81.30
2022-08-26T23:50:55.963Z,82.10
2022-08-26T23:53:24.811Z,81.30
2022-08-26T23:55:55.622Z,81.90
2022-08-26T23:58:24.480Z,82.60
